Time;durP1;ratioP1;P1;durP2;ratioP2;P2;SDS_P1;SDS_P2;PMS_P1;PMS_P2;Temp;Humidity;BMP_temperature;BMP_pressure;BME280_temperature;BME280_humidity;BME280_pressure;Samples;Min_cycle;Max_cycle;Signal;HPM_P1;HPM_P2
2023/04/26 00:01:43;;;;;;;10.30;5.30;;;;;;;7.08;81.86;99273.49;103102;1256;108827;-76
2023/04/26 00:04:07;;;;;;;13.40;5.70;;;;;;;7.06;81.91;99273.58;103028;1260;138661;-76
2023/04/26 00:06:31;;;;;;;13.10;5.20;;;;;;;7.04;81.90;99271.73;103094;1256;107376;-75
2023/04/26 00:08:56;;;;;;;;;;;;;;;7.03;82.10;99274.73;103144;1256;97877;-76
2023/04/26 00:11:20;;;;;;;12.70;4.90;;;;;;;6.99;82.12;99274.15;103141;1256;125071;-77
2023/04/26 00:13:44;;;;;;;8.20;4.20;;;;;;;6.96;82.11;99275.79;103107;1256;107278;-77
2023/04/26 00:16:12;;;;;;;10.70;3.60;;;;;;;6.92;81.91;99280.79;103066;1256;138162;-76
2023/04/26 00:18:36;;;;;;;6.70;4.00;;;;;;;6.85;81.75;99281.00;103176;1260;108567;-76
2023/04/26 00:21:00;;;;;;;7.60;3.90;;;;;;;6.81;81.93;99294.09;104103;1256;95892;-77
2023/04/26 00:23:24;;;;;;;7.70;3.10;;;;;;;6.77;82.62;99292.48;103092;1256;138028;-75
2023/04/26 00:25:47;;;;;;;6.70;3.10;;;;;;;6.75;82.51;99300.16;103171;1257;110027;-75
2023/04/26 00:28:11;;;;;;;4.20;3.10;;;;;;;6.72;82.83;99299.92;102995;1256;138196;-76
2023/04/26 00:30:40;;;;;;;7.00;3.20;;;;;;;6.68;83.09;99301.27;103096;1257;108683;-77
2023/04/26 00:33:03;;;;;;;6.50;3.00;;;;;;;6.66;82.93;99300.27;104416;1256;95918;-76
2023/04/26 00:35:27;;;;;;;8.80;2.80;;;;;;;6.64;83.06;99306.02;103741;1256;138154;-76
2023/04/26 00:37:51;;;;;;;4.30;2.60;;;;;;;6.61;82.91;99308.52;103170;1260;107888;-76
2023/04/26 00:40:15;;;;;;;4.40;2.70;;;;;;;6.60;82.88;99314.09;103361;1256;138266;-75
2023/04/26 00:42:39;;;;;;;5.80;2.70;;;;;;;6.58;83.04;99319.67;103260;1256;107735;-75
2023/04/26 00:45:05;;;;;;;5.40;2.90;;;;;;;6.58;83.03;99322.60;103030;1256;97784;-75
2023/04/26 00:47:30;;;;;;;4.50;2.90;;;;;;;6.60;83.15;99323.08;103377;1258;138081;-75
2023/04/26 00:49:54;;;;;;;6.30;2.70;;;;;;;6.60;83.01;99322.71;102931;1260;106905;-75
2023/04/26 00:52:18;;;;;;;4.70;2.60;;;;;;;6.60;83.14;99321.34;102992;1256;138243;-75
2023/04/26 00:54:43;;;;;;;4.70;2.90;;;;;;;6.61;83.11;99324.93;103240;1255;108675;-75
2023/04/26 00:57:08;;;;;;;5.50;2.60;;;;;;;6.63;83.34;99324.54;103108;1256;97572;-74
2023/04/26 00:59:33;;;;;;;4.50;2.70;;;;;;;6.63;83.17;99328.50;103076;1256;138300;-75
2023/04/26 01:01:57;;;;;;;3.90;2.80;;;;;;;6.64;83.30;99329.88;103275;1256;107532;-75
2023/04/26 01:04:25;;;;;;;5.40;2.70;;;;;;;6.65;83.25;99334.17;103058;1256;138278;-75
2023/04/26 01:06:49;;;;;;;4.30;3.10;;;;;;;6.65;83.33;99332.59;103230;1256;107651;-74
2023/04/26 01:09:14;;;;;;;4.90;3.00;;;;;;;6.64;83.34;99331.41;103556;1260;97793;-75
2023/04/26 01:11:41;;;;;;;3.40;2.50;;;;;;;6.65;83.28;99336.39;103066;1258;137913;-74
2023/04/26 01:14:08;;;;;;;5.40;3.10;;;;;;;6.66;83.21;99332.91;103072;1256;105631;-75
2023/04/26 01:16:34;;;;;;;3.70;2.70;;;;;;;6.67;83.36;99335.66;103070;1256;138187;-75
2023/04/26 01:18:58;;;;;;;6.30;2.90;;;;;;;6.68;83.33;99338.23;103143;1256;109125;-75
2023/04/26 01:21:23;;;;;;;3.80;2.70;;;;;;;6.69;83.34;99338.20;103126;1256;97893;-74
2023/04/26 01:23:47;;;;;;;5.00;3.00;;;;;;;6.70;83.35;99341.29;103220;1256;110936;-74
2023/04/26 01:26:18;;;;;;;5.80;3.00;;;;;;;6.72;83.29;99344.84;103143;1256;108432;-75
2023/04/26 01:28:43;;;;;;;4.90;3.10;;;;;;;6.74;83.35;99342.52;103040;1256;138171;-75
2023/04/26 01:31:07;;;;;;;4.90;3.00;;;;;;;6.77;83.19;99343.29;103090;1256;108401;-75
2023/04/26 01:33:30;;;;;;;5.40;3.10;;;;;;;6.78;83.04;99340.67;104324;1256;138252;-75
2023/04/26 01:35:54;;;;;;;5.70;2.90;;;;;;;6.79;83.16;99345.98;104434;1256;111000;-76
2023/04/26 01:38:19;;;;;;;4.10;2.80;;;;;;;6.80;83.10;99347.15;104365;1256;107425;-76
2023/04/26 01:40:44;;;;;;;5.20;3.10;;;;;;;6.81;82.80;99346.60;104316;1256;138319;-74
2023/04/26 01:43:08;;;;;;;6.50;2.90;;;;;;;6.81;82.77;99352.50;103931;1256;106800;-74
2023/04/26 01:45:31;;;;;;;4.60;2.80;;;;;;;6.81;82.57;99351.29;103027;1256;138348;-73
2023/04/26 01:48:14;;;;;;;5.50;2.90;;;;;;;6.81;82.53;99343.52;103086;1256;110731;-74
2023/04/26 01:50:50;;;;;;;4.30;2.70;;;;;;;6.81;82.65;99343.70;103033;1256;107317;-75
2023/04/26 01:53:14;;;;;;;4.00;2.70;;;;;;;6.80;82.57;99342.16;102987;1256;138238;-74
2023/04/26 01:55:48;;;;;;;4.20;2.50;;;;;;;6.78;82.71;99340.66;103094;1259;109157;-75
2023/04/26 01:58:21;;;;;;;6.40;2.90;;;;;;;6.78;82.68;99338.77;102839;1262;138266;-75
2023/04/26 02:00:45;;;;;;;3.80;2.70;;;;;;;6.77;82.67;99340.52;103151;1256;111716;-74
2023/04/26 02:03:21;;;;;;;5.80;3.00;;;;;;;6.74;82.60;99340.28;103154;1256;107839;-75
2023/04/26 02:06:06;;;;;;;4.20;2.90;;;;;;;6.71;82.46;99341.95;103206;1256;97692;-75
2023/04/26 02:08:51;;;;;;;4.00;2.60;;;;;;;6.69;82.46;99345.45;103741;1256;109914;-74
2023/04/26 02:11:35;;;;;;;4.30;2.80;;;;;;;6.66;82.59;99351.23;103031;1257;138214;-75
2023/04/26 02:14:05;;;;;;;5.40;2.90;;;;;;;6.64;82.64;99353.86;103284;1256;110447;-75
2023/04/26 02:16:39;;;;;;;3.30;2.50;;;;;;;6.62;82.66;99356.86;103022;1260;139113;-75
2023/04/26 02:19:23;;;;;;;4.50;2.80;;;;;;;6.61;82.63;99358.29;103095;1256;97803;-74
2023/04/26 02:21:56;;;;;;;6.60;2.70;;;;;;;6.60;82.57;99358.48;103521;1260;139366;-74
2023/04/26 02:24:24;;;;;;;6.80;3.00;;;;;;;6.59;82.55;99361.28;103112;1256;97900;-74
2023/04/26 02:26:51;;;;;;;6.90;3.20;;;;;;;6.58;82.68;99360.27;103100;1256;111740;-74
2023/04/26 02:29:15;;;;;;;4.00;3.00;;;;;;;6.56;82.58;99359.29;103034;1256;138172;-74
2023/04/26 02:31:38;;;;;;;6.30;3.50;;;;;;;6.54;82.64;99360.23;103278;1256;97798;-74
2023/04/26 02:34:12;;;;;;;7.10;3.60;;;;;;;6.53;82.62;99361.30;103043;1256;138085;-75
2023/04/26 02:36:36;;;;;;;8.20;3.70;;;;;;;6.51;82.45;99354.62;103113;1256;98138;-74
2023/04/26 02:38:59;;;;;;;7.20;4.10;;;;;;;6.50;82.45;99353.80;103178;1256;111720;-75
2023/04/26 02:41:25;;;;;;;10.10;4.10;;;;;;;6.48;82.46;99352.13;102933;1261;138162;-75
2023/04/26 02:43:48;;;;;;;12.10;4.70;;;;;;;6.49;82.59;99358.14;103050;1256;97843;-74
2023/04/26 02:46:13;;;;;;;10.60;4.80;;;;;;;6.48;82.47;99356.13;102823;1262;138772;-75
2023/04/26 02:48:39;;;;;;;13.60;4.80;;;;;;;6.45;82.49;99356.36;103113;1256;97693;-75
2023/04/26 02:51:03;;;;;;;16.60;5.10;;;;;;;6.45;82.54;99364.11;102981;1256;112549;-74
2023/04/26 02:53:27;;;;;;;9.70;5.10;;;;;;;6.46;82.44;99360.13;103151;1257;139017;-75
2023/04/26 02:55:51;;;;;;;11.20;5.40;;;;;;;6.43;82.22;99358.12;103270;1258;97792;-73
2023/04/26 02:58:14;;;;;;;14.10;5.80;;;;;;;6.41;82.03;99356.48;103015;1260;138175;-75
2023/04/26 03:00:38;;;;;;;12.10;5.70;;;;;;;6.38;81.85;99358.98;102964;1256;98650;-75
2023/04/26 03:03:04;;;;;;;12.30;5.80;;;;;;;6.37;82.12;99359.71;103013;1256;111432;-75
2023/04/26 03:05:28;;;;;;;11.50;6.40;;;;;;;6.34;81.99;99362.20;102789;1259;138383;-74
2023/04/26 03:07:52;;;;;;;15.80;6.30;;;;;;;6.30;81.73;99361.80;103616;1256;98362;-75
2023/04/26 03:10:16;;;;;;;17.70;7.20;;;;;;;6.28;81.48;99359.27;102808;1259;138226;-75
2023/04/26 03:12:40;;;;;;;14.70;6.30;;;;;;;6.25;81.11;99361.75;102986;1256;97857;-75
2023/04/26 03:15:05;;;;;;;13.50;6.10;;;;;;;6.21;80.94;99363.63;103153;1256;111635;-75
2023/04/26 03:17:29;;;;;;;13.50;6.20;;;;;;;6.15;80.36;99361.04;103097;1261;138649;-75
2023/04/26 03:19:53;;;;;;;14.60;6.20;;;;;;;6.09;80.17;99359.47;103238;1257;97849;-75
2023/04/26 03:22:17;;;;;;;18.50;6.80;;;;;;;6.02;79.80;99359.13;103053;1256;138176;-76
2023/04/26 03:24:41;;;;;;;15.90;7.00;;;;;;;5.95;79.37;99361.41;102889;1261;97935;-75
2023/04/26 03:27:04;;;;;;;21.50;6.30;;;;;;;5.87;78.98;99362.96;103321;1256;111716;-75
2023/04/26 03:29:30;;;;;;;19.10;6.80;;;;;;;5.79;78.92;99363.90;102990;1257;138359;-75
2023/04/26 03:31:53;;;;;;;15.50;6.60;;;;;;;5.74;79.05;99368.85;103155;1256;97797;-75
2023/04/26 03:34:17;;;;;;;16.30;6.50;;;;;;;5.67;79.02;99373.00;102924;1261;138317;-74
2023/04/26 03:36:41;;;;;;;14.80;7.20;;;;;;;5.61;78.76;99373.86;103035;1256;97847;-74
2023/04/26 03:39:05;;;;;;;20.50;6.80;;;;;;;5.55;78.87;99376.06;103110;1256;110830;-76
2023/04/26 03:41:28;;;;;;;18.80;7.60;;;;;;;5.49;79.09;99377.95;103338;1261;138262;-74
2023/04/26 03:43:55;;;;;;;17.30;6.90;;;;;;;5.43;79.27;99378.45;102997;1263;97787;-75
2023/04/26 03:46:19;;;;;;;15.90;7.20;;;;;;;5.39;79.47;99382.52;103217;1263;138529;-74
2023/04/26 03:48:44;;;;;;;19.30;7.30;;;;;;;5.35;79.54;99383.10;102923;1261;97803;-75
2023/04/26 03:51:07;;;;;;;12.90;6.90;;;;;;;5.31;79.40;99383.56;103016;1259;112383;-75
2023/04/26 03:53:31;;;;;;;14.80;6.70;;;;;;;5.27;79.31;99384.71;102835;1258;139491;-75
2023/04/26 03:55:55;;;;;;;14.80;6.90;;;;;;;5.23;79.30;99385.67;103016;1259;97786;-74
2023/04/26 03:58:19;;;;;;;18.10;7.20;;;;;;;5.19;79.30;99385.75;102872;1263;138392;-74
2023/04/26 04:00:42;;;;;;;18.60;7.30;;;;;;;5.16;78.96;99388.07;103459;1258;97799;-75
2023/04/26 04:03:07;;;;;;;13.60;6.90;;;;;;;5.12;78.78;99390.58;104037;1257;111433;-75
2023/04/26 04:05:31;;;;;;;12.80;6.20;;;;;;;5.10;78.67;99388.39;102859;1257;138544;-75
2023/04/26 04:07:56;;;;;;;;;;;;;;;5.08;78.56;99392.74;102962;1263;98560;-75
2023/04/26 04:10:23;;;;;;;13.00;6.00;;;;;;;5.07;78.40;99397.09;102889;1259;124471;-75
2023/04/26 04:12:47;;;;;;;13.90;6.70;;;;;;;5.07;78.36;99395.34;102979;1258;97793;-75
2023/04/26 04:15:11;;;;;;;15.90;6.90;;;;;;;5.10;78.48;99397.19;103441;1263;112065;-75
2023/04/26 04:17:40;;;;;;;17.70;6.60;;;;;;;5.17;78.58;99399.77;102830;1261;138326;-76
2023/04/26 04:20:06;;;;;;;15.50;6.60;;;;;;;5.26;78.59;99394.03;102931;1263;98383;-76
2023/04/26 04:22:30;;;;;;;18.40;6.80;;;;;;;5.36;78.48;99398.09;102848;1259;139127;-77
2023/04/26 04:24:54;;;;;;;17.00;7.00;;;;;;;5.46;78.30;99398.20;102941;1259;97836;-77
2023/04/26 04:27:20;;;;;;;19.70;7.60;;;;;;;5.58;78.31;99397.38;102948;1259;111780;-76
2023/04/26 04:29:43;;;;;;;17.60;7.10;;;;;;;5.71;78.34;99396.52;103416;1256;138173;-76
2023/04/26 04:32:08;;;;;;;15.70;7.30;;;;;;;5.87;78.27;99396.09;103169;1256;99466;-78
2023/04/26 04:34:35;;;;;;;15.30;7.40;;;;;;;6.02;77.93;99396.23;102893;1260;138705;-76
2023/04/26 04:37:01;;;;;;;18.80;6.50;;;;;;;6.28;77.91;99399.50;103243;1256;97984;-76
2023/04/26 04:39:32;;;;;;;13.60;6.00;;;;;;;6.95;77.70;99399.75;102885;1256;138329;-75
2023/04/26 04:41:57;;;;;;;11.40;5.60;;;;;;;7.96;76.49;99399.17;103115;1256;107782;-76
2023/04/26 04:44:26;;;;;;;11.30;5.80;;;;;;;8.78;75.26;99400.33;103470;1263;97018;-78
2023/04/26 04:46:51;;;;;;;10.50;5.00;;;;;;;9.78;73.24;99398.73;103281;1258;138025;-79
2023/04/26 04:49:17;;;;;;;11.90;5.00;;;;;;;10.71;70.99;99398.46;102813;1256;97920;-78
2023/04/26 04:51:41;;;;;;;9.60;5.10;;;;;;;11.79;69.36;99395.66;102768;1258;138358;-80
2023/04/26 04:54:11;;;;;;;10.90;5.80;;;;;;;12.68;66.26;99400.59;103087;1259;107008;-78
2023/04/26 04:56:34;;;;;;;16.20;6.50;;;;;;;13.69;65.40;99394.02;103173;1259;98111;-77
2023/04/26 04:58:58;;;;;;;14.10;5.00;;;;;;;14.80;63.29;99394.96;102977;1259;137913;-79
2023/04/26 05:01:22;;;;;;;13.00;4.90;;;;;;;15.63;61.05;99397.89;103153;1261;97844;-77
2023/04/26 05:03:49;;;;;;;12.60;4.80;;;;;;;16.28;58.87;99399.77;102918;1261;138004;-76
2023/04/26 05:06:14;;;;;;;9.00;4.30;;;;;;;16.42;56.20;99398.64;102844;1256;108809;-75
2023/04/26 05:08:38;;;;;;;9.60;5.00;;;;;;;16.03;55.13;99405.21;103179;1260;97844;-77
2023/04/26 05:11:03;;;;;;;11.30;4.70;;;;;;;16.16;54.32;99408.50;102847;1262;137677;-78
2023/04/26 05:13:27;;;;;;;8.60;4.70;;;;;;;16.51;53.79;99412.22;102827;1261;97920;-75
2023/04/26 05:15:51;;;;;;;11.40;4.90;;;;;;;16.37;52.31;99412.47;102743;1256;138267;-76
2023/04/26 05:18:14;;;;;;;10.70;4.30;;;;;;;16.00;52.26;99416.23;102809;1259;107604;-74
2023/04/26 05:20:38;;;;;;;10.50;4.70;;;;;;;15.48;51.81;99416.22;102923;1259;216780;-79
2023/04/26 05:23:02;;;;;;;11.40;4.50;;;;;;;14.67;52.04;99422.57;102675;1259;138959;-75
2023/04/26 05:25:26;;;;;;;12.10;4.70;;;;;;;14.09;52.36;99426.95;102807;1256;97774;-74
2023/04/26 05:28:00;;;;;;;9.30;4.50;;;;;;;14.26;52.93;99426.52;102995;1257;137983;-77
2023/04/26 05:30:45;;;;;;;8.70;3.80;;;;;;;15.58;53.67;99429.34;102740;1256;107647;-79
2023/04/26 05:33:17;;;;;;;9.20;4.20;;;;;;;17.30;51.97;99422.23;104294;1256;96109;-80
2023/04/26 05:35:45;;;;;;;10.10;3.90;;;;;;;18.94;49.51;99417.22;104173;1257;137943;-80
2023/04/26 05:38:09;;;;;;;10.60;4.30;;;;;;;20.35;48.29;99422.45;103870;1256;97441;-80
2023/04/26 05:40:32;;;;;;;7.80;4.20;;;;;;;21.66;46.47;99417.67;102855;1256;137858;-79
2023/04/26 05:42:56;;;;;;;8.10;4.10;;;;;;;22.87;44.57;99416.23;103046;1256;106864;-81
2023/04/26 05:45:20;;;;;;;7.10;4.00;;;;;;;23.76;41.67;99407.59;103212;1256;97915;-76
2023/04/26 05:47:46;;;;;;;8.50;3.60;;;;;;;24.47;40.33;99413.52;102901;1256;137481;-84
2023/04/26 05:50:11;;;;;;;7.60;3.40;;;;;;;24.96;38.27;99408.99;103008;1260;97690;-78
2023/04/26 05:52:34;;;;;;;8.90;3.70;;;;;;;25.32;37.94;99406.90;104271;1260;141317;-69
2023/04/26 05:54:58;;;;;;;7.70;3.20;;;;;;;25.59;36.88;99408.48;103078;1256;107009;-70
2023/04/26 05:57:22;;;;;;;9.50;3.80;;;;;;;26.02;36.27;99404.20;102871;1265;97803;-70
2023/04/26 05:59:45;;;;;;;6.60;3.00;;;;;;;26.54;35.17;99401.98;102765;1256;137862;-69
2023/04/26 06:02:10;;;;;;;7.80;3.40;;;;;;;27.28;34.85;99401.13;102701;1262;97918;-71
2023/04/26 06:04:35;;;;;;;8.00;3.40;;;;;;;27.92;33.40;99402.32;102791;1259;137669;-69
2023/04/26 06:07:05;;;;;;;9.70;3.40;;;;;;;28.52;32.13;99404.21;102834;1261;107615;-68
2023/04/26 06:09:32;;;;;;;9.00;3.30;;;;;;;28.83;31.66;99400.69;104334;1258;95921;-66
2023/04/26 06:11:54;;;;;;;;;;;;;;;29.22;31.24;99407.12;102934;1259;106033;-68
2023/04/26 06:14:18;;;;;;;7.20;3.10;;;;;;;29.56;30.64;99407.09;103273;1257;97672;-68
2023/04/26 06:16:56;;;;;;;8.70;3.40;;;;;;;30.00;29.42;99401.46;102991;1259;138325;-68
2023/04/26 06:19:19;;;;;;;8.30;3.80;;;;;;;30.13;28.82;99399.41;102942;1262;109689;-72
2023/04/26 06:21:43;;;;;;;9.80;3.40;;;;;;;30.41;28.13;99400.15;102818;1258;137981;-70
2023/04/26 06:24:08;;;;;;;6.90;2.90;;;;;;;30.74;27.19;99399.67;102812;1257;107053;-70
2023/04/26 06:26:33;;;;;;;6.40;2.80;;;;;;;30.72;26.63;99403.21;102854;1262;97639;-70
2023/04/26 06:28:56;;;;;;;8.20;3.60;;;;;;;30.49;26.51;99400.52;102990;1258;137804;-70
2023/04/26 06:31:21;;;;;;;8.10;2.90;;;;;;;30.69;26.87;99402.23;102873;1258;108313;-70
2023/04/26 06:33:45;;;;;;;7.90;2.90;;;;;;;31.06;26.58;99400.96;102725;1261;138006;-70
2023/04/26 06:36:12;;;;;;;7.50;3.10;;;;;;;31.29;26.52;99399.55;102855;1259;108219;-68
2023/04/26 06:38:37;;;;;;;6.30;3.20;;;;;;;31.64;25.87;99401.20;103030;1262;97784;-70
2023/04/26 06:41:00;;;;;;;6.70;2.70;;;;;;;31.81;24.72;99399.14;102727;1256;138143;-70
2023/04/26 06:43:24;;;;;;;6.50;3.00;;;;;;;32.09;24.35;99404.27;102738;1263;109460;-70
2023/04/26 06:45:56;;;;;;;7.60;2.40;;;;;;;32.30;23.40;99404.48;102754;1256;138626;-71
2023/04/26 06:48:20;;;;;;;6.80;2.60;;;;;;;32.20;22.73;99407.95;102988;1256;107853;-67
2023/04/26 06:50:43;;;;;;;8.50;2.80;;;;;;;31.80;22.65;99407.86;103048;1256;97696;-70
2023/04/26 06:53:07;;;;;;;8.40;3.20;;;;;;;31.57;22.35;99409.89;103695;1256;137726;-67
2023/04/26 06:55:31;;;;;;;10.30;2.90;;;;;;;31.69;22.43;99409.68;103026;1256;108814;-69
2023/04/26 06:57:57;;;;;;;9.00;3.30;;;;;;;31.87;22.08;99409.99;103006;1260;138420;-69
2023/04/26 07:00:22;;;;;;;6.10;3.30;;;;;;;31.87;21.05;99406.05;103127;1256;109000;-69
2023/04/26 07:02:45;;;;;;;8.40;2.50;;;;;;;31.64;20.89;99410.58;104350;1256;97311;-69
2023/04/26 07:05:09;;;;;;;9.90;2.80;;;;;;;31.44;20.93;99414.52;102995;1260;138022;-69
2023/04/26 07:07:33;;;;;;;10.40;3.00;;;;;;;31.38;21.33;99415.87;103232;1256;107816;-68
2023/04/26 07:09:57;;;;;;;9.30;2.70;;;;;;;31.42;21.02;99415.64;102986;1256;139210;-68
2023/04/26 07:12:20;;;;;;;6.70;2.50;;;;;;;31.49;20.99;99416.65;103035;1260;108475;-69
2023/04/26 07:14:44;;;;;;;7.20;2.50;;;;;;;31.39;20.79;99420.52;103029;1260;99135;-69
2023/04/26 07:17:08;;;;;;;10.20;2.50;;;;;;;30.96;21.26;99425.27;102950;1262;137845;-69
2023/04/26 07:19:31;;;;;;;10.80;2.90;;;;;;;30.57;20.95;99424.67;103025;1256;107692;-69
2023/04/26 07:21:55;;;;;;;8.30;2.70;;;;;;;29.48;21.24;99429.52;102952;1262;138567;-70
2023/04/26 07:24:18;;;;;;;7.90;2.50;;;;;;;28.92;21.05;99426.55;103020;1256;107319;-70
2023/04/26 07:26:41;;;;;;;6.10;2.70;;;;;;;28.23;21.45;99430.02;103048;1260;99700;-68
2023/04/26 07:29:05;;;;;;;8.50;2.60;;;;;;;26.85;22.25;99434.83;102816;1256;138311;-69
2023/04/26 07:31:30;;;;;;;10.50;3.10;;;;;;;25.36;23.19;99438.12;103003;1260;107897;-68
2023/04/26 07:33:54;;;;;;;6.90;2.70;;;;;;;24.10;24.09;99438.83;103030;1260;138468;-70
2023/04/26 07:36:18;;;;;;;12.90;2.60;;;;;;;22.88;24.67;99450.33;103081;1256;109086;-69
2023/04/26 07:38:42;;;;;;;7.80;2.70;;;;;;;22.97;25.05;99447.36;103099;1260;99237;-68
2023/04/26 07:41:06;;;;;;;8.50;2.80;;;;;;;23.16;25.19;99446.42;102866;1260;137863;-68
2023/04/26 07:43:30;;;;;;;7.60;2.70;;;;;;;23.82;25.28;99448.61;102990;1260;108533;-68
2023/04/26 07:45:53;;;;;;;11.20;5.40;;;;;;;23.90;25.08;99452.80;102959;1260;138126;-67
2023/04/26 07:48:17;;;;;;;7.80;2.20;;;;;;;23.32;25.18;99453.02;103059;1260;107751;-68
2023/04/26 07:50:41;;;;;;;5.70;2.20;;;;;;;22.74;25.38;99459.67;103216;1262;99160;-68
2023/04/26 07:53:04;;;;;;;9.30;2.60;;;;;;;23.30;25.26;99463.64;102870;1256;138120;-68
2023/04/26 07:55:28;;;;;;;5.30;2.10;;;;;;;24.18;25.39;99459.66;103002;1258;107142;-69
2023/04/26 07:57:52;;;;;;;9.40;2.30;;;;;;;25.34;24.84;99463.41;102846;1262;138191;-69
2023/04/26 08:00:18;;;;;;;5.10;2.20;;;;;;;25.94;24.22;99454.73;102836;1261;108615;-69
2023/04/26 08:02:41;;;;;;;11.70;3.20;;;;;;;25.26;23.82;99465.58;103878;1259;99165;-71
2023/04/26 08:05:14;;;;;;;5.10;2.20;;;;;;;23.92;24.12;99465.27;102780;1258;138213;-68
2023/04/26 08:07:38;;;;;;;7.40;2.40;;;;;;;22.80;24.57;99462.95;103811;1258;109033;-69
2023/04/26 08:10:01;;;;;;;6.80;2.40;;;;;;;21.74;24.92;99466.63;102829;1263;139312;-71
2023/04/26 08:12:25;;;;;;;12.30;2.90;;;;;;;20.79;25.50;99477.33;102920;1262;108681;-70
2023/04/26 08:14:49;;;;;;;10.20;3.20;;;;;;;19.68;25.90;99485.44;102956;1258;99171;-70
2023/04/26 08:17:13;;;;;;;8.90;2.80;;;;;;;18.42;26.92;99486.48;102774;1261;138255;-68
2023/04/26 08:19:37;;;;;;;9.90;2.60;;;;;;;17.32;28.19;99501.13;102755;1261;108057;-72
2023/04/26 08:22:00;;;;;;;6.70;2.40;;;;;;;16.43;29.34;99501.02;102716;1257;138183;-73
2023/04/26 08:24:24;;;;;;;6.50;2.50;;;;;;;16.31;30.37;99500.10;102843;1262;107589;-71
2023/04/26 08:26:47;;;;;;;8.10;2.80;;;;;;;16.97;30.48;99497.46;102929;1262;99174;-71
2023/04/26 08:29:10;;;;;;;9.20;2.30;;;;;;;17.00;30.12;99496.56;102841;1264;137821;-70
2023/04/26 08:31:34;;;;;;;7.80;2.30;;;;;;;16.54;30.68;99499.07;102908;1271;108082;-72
2023/04/26 08:33:58;;;;;;;5.10;2.40;;;;;;;17.02;31.00;99496.45;103278;1261;139198;-72
2023/04/26 08:36:22;;;;;;;5.60;2.40;;;;;;;17.18;30.25;99495.27;102893;1263;107865;-73
2023/04/26 08:38:45;;;;;;;9.80;2.60;;;;;;;16.66;30.53;99497.31;102971;1261;99080;-71
2023/04/26 08:41:12;;;;;;;6.70;2.40;;;;;;;15.98;31.01;99490.74;102699;1263;137804;-71
2023/04/26 08:43:37;;;;;;;9.10;2.40;;;;;;;15.12;31.81;99496.05;102816;1262;106667;-71
2023/04/26 08:46:02;;;;;;;10.50;2.60;;;;;;;14.38;32.66;99503.41;103200;1261;138292;-70
2023/04/26 08:48:30;;;;;;;7.30;2.40;;;;;;;13.76;33.72;99510.21;102957;1261;109621;-70
2023/04/26 08:50:54;;;;;;;11.30;1.90;;;;;;;13.47;34.20;99510.95;102907;1263;99730;-71
2023/04/26 08:53:18;;;;;;;11.20;2.40;;;;;;;14.10;34.49;99510.48;102831;1261;138405;-72
2023/04/26 08:55:42;;;;;;;7.50;2.20;;;;;;;14.34;34.21;99505.35;102872;1262;108034;-72
2023/04/26 08:58:06;;;;;;;7.60;2.30;;;;;;;14.14;34.17;99510.09;102741;1261;138415;-72
2023/04/26 09:00:30;;;;;;;5.80;1.90;;;;;;;13.75;34.41;99516.89;103242;1257;107427;-71
2023/04/26 09:02:54;;;;;;;7.20;2.30;;;;;;;13.30;34.90;99522.67;102841;1262;99074;-75
2023/04/26 09:05:22;;;;;;;8.40;2.70;;;;;;;12.99;35.80;99524.17;102816;1261;139088;-73
2023/04/26 09:07:47;;;;;;;10.30;3.10;;;;;;;12.67;36.24;99523.59;103060;1262;109174;-73
2023/04/26 09:10:13;;;;;;;6.30;2.10;;;;;;;12.42;36.65;99523.15;102788;1260;138360;-73
2023/04/26 09:12:37;;;;;;;5.90;1.90;;;;;;;12.26;36.83;99530.95;102889;1263;108301;-73
2023/04/26 09:15:06;;;;;;;9.00;2.00;;;;;;;11.93;37.07;99524.91;103015;1258;98998;-75
2023/04/26 09:17:33;;;;;;;6.60;2.30;;;;;;;11.57;37.57;99536.94;103412;1256;138317;-74
2023/04/26 09:20:20;;;;;;;4.50;2.00;;;;;;;11.28;38.01;99542.10;102944;1260;108647;-74
2023/04/26 09:22:44;;;;;;;8.90;2.40;;;;;;;11.03;38.41;99539.95;103348;1260;138206;-75
2023/04/26 09:25:12;;;;;;;5.20;2.00;;;;;;;10.77;38.75;99548.58;103847;1258;107811;-76
2023/04/26 09:27:37;;;;;;;7.90;1.90;;;;;;;10.53;38.95;99550.36;102909;1257;138164;-76
2023/04/26 09:30:05;;;;;;;6.50;2.30;;;;;;;10.34;39.24;99556.91;103179;1258;112043;-75
2023/04/26 09:32:44;;;;;;;9.60;2.10;;;;;;;10.19;39.56;99552.80;103314;1260;108164;-76
2023/04/26 09:35:17;;;;;;;4.90;1.80;;;;;;;10.36;39.80;99553.33;102998;1262;137976;-71
2023/04/26 09:37:52;;;;;;;4.60;1.70;;;;;;;10.86;39.16;99554.98;103983;1257;109937;-72
2023/04/26 09:40:25;;;;;;;6.70;2.30;;;;;;;10.98;38.81;99555.66;103464;1260;138281;-70
2023/04/26 09:42:57;;;;;;;9.30;1.90;;;;;;;10.97;38.69;99550.69;103112;1258;113232;-70
2023/04/26 09:45:21;;;;;;;7.80;2.20;;;;;;;10.82;38.69;99557.25;103014;1260;108514;-70
2023/04/26 09:47:45;;;;;;;11.50;1.90;;;;;;;10.67;39.01;99559.99;102979;1260;138007;-73
2023/04/26 09:50:09;;;;;;;7.40;1.90;;;;;;;10.57;38.66;99560.95;103060;1256;107730;-78
2023/04/26 09:52:43;;;;;;;8.80;1.90;;;;;;;10.42;38.73;99560.92;103478;1260;138138;-70
2023/04/26 09:55:10;;;;;;;10.40;2.20;;;;;;;10.27;38.60;99561.36;103385;1260;112461;-74
2023/04/26 09:57:43;;;;;;;6.40;2.00;;;;;;;10.19;38.70;99564.27;103189;1258;138426;-73
2023/04/26 10:00:11;;;;;;;5.70;2.20;;;;;;;10.19;39.08;99563.70;103091;1258;99050;-75
2023/04/26 10:02:35;;;;;;;5.00;1.70;;;;;;;10.30;39.11;99563.13;104380;1256;106878;-74
2023/04/26 10:05:00;;;;;;;7.00;1.90;;;;;;;10.90;39.26;99557.58;102614;1258;1003745;-73
2023/04/26 10:07:25;;;;;;;8.30;1.70;;;;;;;11.35;38.32;99552.25;103239;1258;112183;-76
2023/04/26 10:09:50;;;;;;;7.00;1.70;;;;;;;11.53;37.34;99553.48;102988;1257;138345;-75
2023/04/26 10:12:15;;;;;;;5.70;1.70;;;;;;;11.56;36.96;99552.98;103050;1258;99026;-76
2023/04/26 10:14:40;;;;;;;6.60;2.10;;;;;;;11.47;36.68;99556.70;103028;1260;108215;-76
2023/04/26 10:17:05;;;;;;;5.60;2.30;;;;;;;11.32;37.04;99558.11;103080;1260;138014;-76
2023/04/26 10:19:29;;;;;;;6.90;2.00;;;;;;;11.17;37.18;99560.73;103066;1260;113579;-75
2023/04/26 10:21:56;;;;;;;5.60;1.80;;;;;;;11.13;37.42;99566.83;102988;1257;138741;-76
2023/04/26 10:24:22;;;;;;;5.20;1.90;;;;;;;11.30;37.80;99563.77;103132;1260;100411;-74
2023/04/26 10:26:50;;;;;;;5.60;2.60;;;;;;;11.43;38.16;99561.06;103089;1257;108247;-74
2023/04/26 10:29:17;;;;;;;8.10;2.60;;;;;;;11.51;37.87;99560.04;103051;1257;138067;-74
2023/04/26 10:32:07;;;;;;;8.20;2.00;;;;;;;11.47;37.82;99557.71;103024;1260;112681;-76
2023/04/26 10:34:32;;;;;;;5.60;1.60;;;;;;;11.40;37.64;99563.48;102929;1258;140437;-75
2023/04/26 10:37:10;;;;;;;7.50;2.50;;;;;;;11.29;37.47;99568.55;103029;1261;99148;-75
2023/04/26 10:39:35;;;;;;;7.30;1.70;;;;;;;11.13;37.49;99567.52;102896;1261;138050;-75
2023/04/26 10:42:22;;;;;;;6.50;1.70;;;;;;;10.99;37.75;99574.41;103212;1258;99179;-75
2023/04/26 10:44:51;;;;;;;6.70;1.90;;;;;;;10.94;38.09;99579.31;103135;1257;112827;-76
2023/04/26 10:47:36;;;;;;;6.40;2.00;;;;;;;10.92;38.16;99581.14;103503;1260;138423;-75
2023/04/26 10:50:08;;;;;;;6.60;2.00;;;;;;;10.91;38.11;99583.10;103020;1261;99258;-74
2023/04/26 10:53:05;;;;;;;13.30;2.70;;;;;;;10.85;37.65;99577.45;102904;1258;137915;-74
2023/04/26 10:55:46;;;;;;;8.10;2.10;;;;;;;10.80;37.95;99580.30;102935;1258;99163;-73
2023/04/26 10:58:27;;;;;;;6.90;1.90;;;;;;;10.81;37.88;99579.38;103208;1257;138051;-74
2023/04/26 11:01:05;;;;;;;8.60;2.10;;;;;;;10.80;37.16;99579.25;102913;1260;107057;-74
2023/04/26 11:03:30;;;;;;;8.50;2.30;;;;;;;10.94;37.29;99582.27;102992;1258;99654;-74
2023/04/26 11:05:57;;;;;;;8.80;2.40;;;;;;;11.07;37.24;99585.55;103499;1257;107187;-74
2023/04/26 11:08:24;;;;;;;7.90;2.60;;;;;;;11.10;37.22;99590.80;102954;1257;99617;-75
2023/04/26 11:10:56;;;;;;;8.10;2.40;;;;;;;11.04;37.57;99594.90;103028;1257;137941;-74
2023/04/26 11:13:20;;;;;;;6.70;2.50;;;;;;;10.95;37.70;99598.61;102941;1257;108243;-74
2023/04/26 11:15:59;;;;;;;8.20;2.70;;;;;;;10.76;37.79;99599.39;102872;1260;138988;-74
2023/04/26 11:18:23;;;;;;;6.10;1.60;;;;;;;10.50;37.37;99605.22;103238;1258;110356;-74